sensor_id;sensor_type;location;lat;lon;timestamp;pressure;altitude;pressure_sealevel;temperature;humidity
28312;BME280;15572;48.810;9.148;2024-01-30T00:00:35;99429.19;;;1.75;100.00
28312;BME280;15572;48.810;9.148;2024-01-30T00:05:32;99430.06;;;1.76;100.00
28312;BME280;15572;48.810;9.148;2024-01-30T00:10:29;99421.53;;;1.71;100.00
28312;BME280;15572;48.810;9.148;2024-01-30T00:15:26;99426.13;;;1.68;100.00
28312;BME280;15572;48.810;9.148;2024-01-30T00:20:22;99424.41;;;1.67;100.00
28312;BME280;15572;48.810;9.148;2024-01-30T00:25:20;99432.22;;;1.58;100.00
28312;BME280;15572;48.810;9.148;2024-01-30T00:30:16;99438.19;;;1.61;100.00
28312;BME280;15572;48.810;9.148;2024-01-30T00:35:13;99430.84;;;1.65;100.00
28312;BME280;15572;48.810;9.148;2024-01-30T00:40:10;99430.19;;;1.61;100.00
28312;BME280;15572;48.810;9.148;2024-01-30T00:45:13;99432.53;;;1.66;100.00
28312;BME280;15572;48.810;9.148;2024-01-30T00:50:11;99426.78;;;1.59;100.00
28312;BME280;15572;48.810;9.148;2024-01-30T00:55:07;99435.66;;;1.60;100.00
28312;BME280;15572;48.810;9.148;2024-01-30T01:00:05;99437.06;;;1.53;100.00
28312;BME280;15572;48.810;9.148;2024-01-30T01:05:05;99430.97;;;1.51;100.00
28312;BME280;15572;48.810;9.148;2024-01-30T01:10:01;99444.53;;;1.48;100.00
28312;BME280;15572;48.810;9.148;2024-01-30T01:14:59;99440.06;;;1.48;100.00
28312;BME280;15572;48.810;9.148;2024-01-30T01:19:55;99441.31;;;1.55;100.00
28312;BME280;15572;48.810;9.148;2024-01-30T01:24:53;99430.84;;;1.52;100.00
28312;BME280;15572;48.810;9.148;2024-01-30T01:29:49;99438.34;;;1.47;100.00
28312;BME280;15572;48.810;9.148;2024-01-30T01:34:45;99431.53;;;1.43;100.00
28312;BME280;15572;48.810;9.148;2024-01-30T01:39:42;99426.19;;;1.43;100.00
28312;BME280;15572;48.810;9.148;2024-01-30T01:44:39;99431.63;;;1.42;100.00
28312;BME280;15572;48.810;9.148;2024-01-30T01:49:36;99434.53;;;1.39;100.00
28312;BME280;15572;48.810;9.148;2024-01-30T01:54:33;99436.00;;;1.43;100.00
28312;BME280;15572;48.810;9.148;2024-01-30T01:59:30;99425.66;;;1.38;100.00
28312;BME280;15572;48.810;9.148;2024-01-30T02:04:28;99423.63;;;1.29;100.00
28312;BME280;15572;48.810;9.148;2024-01-30T02:09:24;99424.19;;;1.21;100.00
28312;BME280;15572;48.810;9.148;2024-01-30T02:14:20;99429.28;;;1.24;100.00
28312;BME280;15572;48.810;9.148;2024-01-30T02:19:17;99436.03;;;1.17;100.00
28312;BME280;15572;48.810;9.148;2024-01-30T02:24:14;99437.44;;;1.10;100.00
28312;BME280;15572;48.810;9.148;2024-01-30T02:29:11;99439.25;;;1.10;100.00
28312;BME280;15572;48.810;9.148;2024-01-30T02:34:07;99444.34;;;1.13;100.00
28312;BME280;15572;48.810;9.148;2024-01-30T02:39:03;99442.44;;;1.02;100.00
28312;BME280;15572;48.810;9.148;2024-01-30T02:44:01;99439.88;;;1.01;100.00
28312;BME280;15572;48.810;9.148;2024-01-30T02:48:58;99435.41;;;1.01;100.00
28312;BME280;15572;48.810;9.148;2024-01-30T02:53:54;99433.25;;;0.94;100.00
28312;BME280;15572;48.810;9.148;2024-01-30T02:58:51;99435.94;;;0.94;100.00
28312;BME280;15572;48.810;9.148;2024-01-30T03:03:48;99436.25;;;0.89;100.00
28312;BME280;15572;48.810;9.148;2024-01-30T03:08:45;99435.59;;;0.85;100.00
28312;BME280;15572;48.810;9.148;2024-01-30T03:13:41;99429.94;;;0.77;100.00
28312;BME280;15572;48.810;9.148;2024-01-30T03:18:38;99433.03;;;0.59;100.00
28312;BME280;15572;48.810;9.148;2024-01-30T03:23:35;99442.84;;;0.58;100.00
28312;BME280;15572;48.810;9.148;2024-01-30T03:28:32;99434.53;;;0.75;100.00
28312;BME280;15572;48.810;9.148;2024-01-30T03:33:28;99438.38;;;0.71;100.00
28312;BME280;15572;48.810;9.148;2024-01-30T03:38:25;99441.84;;;0.59;100.00
28312;BME280;15572;48.810;9.148;2024-01-30T03:43:22;99441.31;;;0.54;100.00
28312;BME280;15572;48.810;9.148;2024-01-30T03:48:20;99442.94;;;0.57;100.00
28312;BME280;15572;48.810;9.148;2024-01-30T03:53:17;99443.13;;;0.54;100.00
28312;BME280;15572;48.810;9.148;2024-01-30T03:58:13;99449.84;;;0.59;100.00
28312;BME280;15572;48.810;9.148;2024-01-30T04:03:11;99449.56;;;0.64;100.00
28312;BME280;15572;48.810;9.148;2024-01-30T04:08:08;99443.44;;;0.49;100.00
28312;BME280;15572;48.810;9.148;2024-01-30T04:13:04;99450.44;;;0.37;100.00
28312;BME280;15572;48.810;9.148;2024-01-30T04:18:00;99443.59;;;0.21;100.00
28312;BME280;15572;48.810;9.148;2024-01-30T04:22:58;99445.59;;;0.17;100.00
28312;BME280;15572;48.810;9.148;2024-01-30T04:27:54;99433.13;;;0.18;100.00
28312;BME280;15572;48.810;9.148;2024-01-30T04:32:51;99428.47;;;0.21;100.00
28312;BME280;15572;48.810;9.148;2024-01-30T04:37:47;99430.78;;;0.13;100.00
28312;BME280;15572;48.810;9.148;2024-01-30T04:42:45;99432.25;;;0.05;100.00
28312;BME280;15572;48.810;9.148;2024-01-30T04:47:41;99432.44;;;0.02;100.00
28312;BME280;15572;48.810;9.148;2024-01-30T04:52:38;99431.94;;;0.09;100.00
28312;BME280;15572;48.810;9.148;2024-01-30T04:57:34;99437.03;;;0.12;100.00
28312;BME280;15572;48.810;9.148;2024-01-30T05:02:33;99435.25;;;0.13;100.00
28312;BME280;15572;48.810;9.148;2024-01-30T05:07:29;99433.94;;;0.06;100.00
28312;BME280;15572;48.810;9.148;2024-01-30T05:12:26;99445.56;;;0.05;100.00
28312;BME280;15572;48.810;9.148;2024-01-30T05:17:22;99450.69;;;0.08;100.00
28312;BME280;15572;48.810;9.148;2024-01-30T05:22:20;99440.88;;;0.08;100.00
28312;BME280;15572;48.810;9.148;2024-01-30T05:27:16;99434.91;;;0.05;100.00
28312;BME280;15572;48.810;9.148;2024-01-30T05:32:13;99444.59;;;0.06;100.00
28312;BME280;15572;48.810;9.148;2024-01-30T05:37:09;99451.06;;;0.02;100.00
28312;BME280;15572;48.810;9.148;2024-01-30T05:42:10;99449.47;;;-0.01;100.00
28312;BME280;15572;48.810;9.148;2024-01-30T05:47:07;99454.41;;;0.05;100.00
28312;BME280;15572;48.810;9.148;2024-01-30T05:52:04;99458.47;;;0.11;100.00
28312;BME280;15572;48.810;9.148;2024-01-30T05:57:00;99455.69;;;0.12;100.00
28312;BME280;15572;48.810;9.148;2024-01-30T06:01:58;99458.75;;;0.06;100.00
28312;BME280;15572;48.810;9.148;2024-01-30T06:06:54;99462.28;;;0.07;100.00
28312;BME280;15572;48.810;9.148;2024-01-30T06:11:53;99454.19;;;0.08;100.00
28312;BME280;15572;48.810;9.148;2024-01-30T06:16:49;99448.22;;;0.05;100.00
28312;BME280;15572;48.810;9.148;2024-01-30T06:21:47;99451.19;;;0.00;100.00
28312;BME280;15572;48.810;9.148;2024-01-30T06:26:43;99459.06;;;0.02;100.00
28312;BME280;15572;48.810;9.148;2024-01-30T06:31:40;99458.41;;;-0.02;100.00
28312;BME280;15572;48.810;9.148;2024-01-30T06:36:37;99461.69;;;-0.11;100.00
28312;BME280;15572;48.810;9.148;2024-01-30T06:41:35;99460.06;;;-0.14;100.00
28312;BME280;15572;48.810;9.148;2024-01-30T06:46:31;99460.44;;;-0.20;100.00
28312;BME280;15572;48.810;9.148;2024-01-30T06:51:28;99462.72;;;-0.14;100.00
28312;BME280;15572;48.810;9.148;2024-01-30T06:56:25;99460.06;;;-0.14;100.00
28312;BME280;15572;48.810;9.148;2024-01-30T07:01:27;99473.06;;;-0.09;100.00
28312;BME280;15572;48.810;9.148;2024-01-30T07:06:24;99474.56;;;-0.05;100.00
28312;BME280;15572;48.810;9.148;2024-01-30T07:11:20;99477.81;;;0.00;100.00
28312;BME280;15572;48.810;9.148;2024-01-30T07:16:18;99481.13;;;0.04;100.00
28312;BME280;15572;48.810;9.148;2024-01-30T07:21:16;99483.94;;;0.15;100.00
28312;BME280;15572;48.810;9.148;2024-01-30T07:26:13;99485.38;;;0.33;100.00
28312;BME280;15572;48.810;9.148;2024-01-30T07:31:09;99484.84;;;0.28;100.00
28312;BME280;15572;48.810;9.148;2024-01-30T07:36:06;99485.00;;;0.39;100.00
28312;BME280;15572;48.810;9.148;2024-01-30T07:41:04;99484.28;;;0.50;100.00
28312;BME280;15572;48.810;9.148;2024-01-30T07:46:00;99492.38;;;0.48;100.00
28312;BME280;15572;48.810;9.148;2024-01-30T07:50:57;99482.69;;;0.60;100.00
28312;BME280;15572;48.810;9.148;2024-01-30T07:55:54;99490.63;;;0.74;100.00
28312;BME280;15572;48.810;9.148;2024-01-30T08:00:52;99484.88;;;0.93;100.00
28312;BME280;15572;48.810;9.148;2024-01-30T08:05:48;99490.03;;;1.08;100.00
28312;BME280;15572;48.810;9.148;2024-01-30T08:10:45;99486.59;;;1.19;100.00
28312;BME280;15572;48.810;9.148;2024-01-30T08:15:41;99486.72;;;1.30;100.00
28312;BME280;15572;48.810;9.148;2024-01-30T08:20:39;99486.38;;;1.47;100.00
28312;BME280;15572;48.810;9.148;2024-01-30T08:25:35;99478.13;;;1.63;100.00
28312;BME280;15572;48.810;9.148;2024-01-30T08:30:31;99487.50;;;1.81;100.00
28312;BME280;15572;48.810;9.148;2024-01-30T08:35:28;99490.13;;;1.94;100.00
28312;BME280;15572;48.810;9.148;2024-01-30T08:40:28;99485.16;;;2.13;100.00
28312;BME280;15572;48.810;9.148;2024-01-30T08:45:25;99481.88;;;2.33;100.00
28312;BME280;15572;48.810;9.148;2024-01-30T08:50:21;99476.00;;;2.52;100.00
28312;BME280;15572;48.810;9.148;2024-01-30T08:55:17;99480.81;;;2.71;100.00
28312;BME280;15572;48.810;9.148;2024-01-30T09:00:16;99487.31;;;2.90;100.00
28312;BME280;15572;48.810;9.148;2024-01-30T09:05:12;99492.13;;;3.09;100.00
28312;BME280;15572;48.810;9.148;2024-01-30T09:10:09;99494.97;;;3.30;100.00
28312;BME280;15572;48.810;9.148;2024-01-30T09:15:06;99507.53;;;3.52;100.00
28312;BME280;15572;48.810;9.148;2024-01-30T09:20:05;99506.53;;;3.75;100.00
28312;BME280;15572;48.810;9.148;2024-01-30T09:25:02;99504.81;;;3.96;100.00
28312;BME280;15572;48.810;9.148;2024-01-30T09:29:58;99515.38;;;4.20;100.00
28312;BME280;15572;48.810;9.148;2024-01-30T09:34:54;99509.59;;;4.47;100.00
28312;BME280;15572;48.810;9.148;2024-01-30T09:39:52;99512.91;;;4.71;100.00
28312;BME280;15572;48.810;9.148;2024-01-30T09:44:50;99511.97;;;4.93;100.00
28312;BME280;15572;48.810;9.148;2024-01-30T09:49:47;99507.22;;;5.17;100.00
28312;BME280;15572;48.810;9.148;2024-01-30T09:54:44;99514.41;;;5.37;100.00
28312;BME280;15572;48.810;9.148;2024-01-30T09:59:43;99521.03;;;5.54;100.00
28312;BME280;15572;48.810;9.148;2024-01-30T10:04:39;99520.56;;;5.79;100.00
28312;BME280;15572;48.810;9.148;2024-01-30T10:09:36;99517.97;;;5.99;100.00
28312;BME280;15572;48.810;9.148;2024-01-30T10:14:33;99518.06;;;6.18;100.00
28312;BME280;15572;48.810;9.148;2024-01-30T10:19:30;99520.09;;;6.35;100.00
28312;BME280;15572;48.810;9.148;2024-01-30T10:24:27;99521.41;;;6.50;100.00
28312;BME280;15572;48.810;9.148;2024-01-30T10:29:24;99503.84;;;6.65;100.00
28312;BME280;15572;48.810;9.148;2024-01-30T10:34:20;99506.97;;;6.80;100.00
28312;BME280;15572;48.810;9.148;2024-01-30T10:39:20;99503.59;;;6.97;100.00
28312;BME280;15572;48.810;9.148;2024-01-30T10:44:19;99490.25;;;7.15;100.00
28312;BME280;15572;48.810;9.148;2024-01-30T10:49:16;99495.19;;;7.29;100.00
28312;BME280;15572;48.810;9.148;2024-01-30T10:54:13;99493.47;;;7.47;100.00
28312;BME280;15572;48.810;9.148;2024-01-30T10:59:11;99478.34;;;7.64;100.00
28312;BME280;15572;48.810;9.148;2024-01-30T11:04:08;99483.13;;;7.80;100.00
28312;BME280;15572;48.810;9.148;2024-01-30T11:09:06;99480.78;;;7.94;99.32
28312;BME280;15572;48.810;9.148;2024-01-30T11:14:10;99479.44;;;8.08;98.40
28312;BME280;15572;48.810;9.148;2024-01-30T11:19:10;99482.06;;;8.18;97.56
28312;BME280;15572;48.810;9.148;2024-01-30T11:24:07;99478.59;;;8.35;96.19
28312;BME280;15572;48.810;9.148;2024-01-30T11:29:07;99484.25;;;8.41;95.36
28312;BME280;15572;48.810;9.148;2024-01-30T11:34:06;99467.97;;;8.51;94.41
28312;BME280;15572;48.810;9.148;2024-01-30T11:39:02;99474.16;;;8.61;93.67
28312;BME280;15572;48.810;9.148;2024-01-30T11:43:59;99474.63;;;8.74;92.31
28312;BME280;15572;48.810;9.148;2024-01-30T11:48:55;99470.84;;;8.85;91.56
28312;BME280;15572;48.810;9.148;2024-01-30T11:53:53;99464.75;;;9.01;90.35
28312;BME280;15572;48.810;9.148;2024-01-30T11:58:49;99455.53;;;9.11;89.49
28312;BME280;15572;48.810;9.148;2024-01-30T12:03:49;99452.75;;;9.21;89.00
28312;BME280;15572;48.810;9.148;2024-01-30T12:08:57;99453.50;;;9.31;87.96
28312;BME280;15572;48.810;9.148;2024-01-30T12:13:54;99440.03;;;9.39;87.44
28312;BME280;15572;48.810;9.148;2024-01-30T12:18:59;99439.09;;;9.48;87.22
28312;BME280;15572;48.810;9.148;2024-01-30T12:23:57;99437.25;;;9.57;86.81
28312;BME280;15572;48.810;9.148;2024-01-30T12:28:55;99428.22;;;9.66;85.91
28312;BME280;15572;48.810;9.148;2024-01-30T12:33:53;99429.78;;;9.77;84.56
28312;BME280;15572;48.810;9.148;2024-01-30T12:38:50;99422.41;;;9.95;82.98
28312;BME280;15572;48.810;9.148;2024-01-30T12:43:48;99423.00;;;10.14;81.87
28312;BME280;15572;48.810;9.148;2024-01-30T12:48:44;99426.28;;;10.34;80.71
28312;BME280;15572;48.810;9.148;2024-01-30T12:53:41;99421.25;;;10.55;79.11
28312;BME280;15572;48.810;9.148;2024-01-30T12:58:37;99420.63;;;10.78;77.42
28312;BME280;15572;48.810;9.148;2024-01-30T13:03:35;99423.00;;;11.05;76.63
28312;BME280;15572;48.810;9.148;2024-01-30T13:08:31;99421.94;;;11.30;74.50
28312;BME280;15572;48.810;9.148;2024-01-30T13:13:28;99419.31;;;11.77;72.53
28312;BME280;15572;48.810;9.148;2024-01-30T13:18:24;99425.22;;;12.28;70.15
28312;BME280;15572;48.810;9.148;2024-01-30T13:23:22;99422.63;;;12.57;68.54
28312;BME280;15572;48.810;9.148;2024-01-30T13:28:18;99414.81;;;12.32;69.03
28312;BME280;15572;48.810;9.148;2024-01-30T13:33:15;99419.81;;;12.20;69.71
28312;BME280;15572;48.810;9.148;2024-01-30T13:38:12;99414.75;;;12.17;70.25
28312;BME280;15572;48.810;9.148;2024-01-30T13:43:10;99417.25;;;12.18;70.30
28312;BME280;15572;48.810;9.148;2024-01-30T13:48:07;99415.13;;;12.06;70.84
28312;BME280;15572;48.810;9.148;2024-01-30T13:53:04;99410.75;;;11.97;71.03
28312;BME280;15572;48.810;9.148;2024-01-30T13:58:01;99420.09;;;11.94;71.11
28312;BME280;15572;48.810;9.148;2024-01-30T14:02:59;99411.47;;;11.91;70.45
28312;BME280;15572;48.810;9.148;2024-01-30T14:07:56;99420.16;;;11.78;70.63
28312;BME280;15572;48.810;9.148;2024-01-30T14:12:53;99423.91;;;11.69;70.37
28312;BME280;15572;48.810;9.148;2024-01-30T14:17:51;99419.16;;;11.55;71.03
28312;BME280;15572;48.810;9.148;2024-01-30T14:22:49;99424.13;;;11.43;71.61
28312;BME280;15572;48.810;9.148;2024-01-30T14:27:46;99423.63;;;11.31;71.61
28312;BME280;15572;48.810;9.148;2024-01-30T14:32:43;99426.84;;;11.19;72.07
28312;BME280;15572;48.810;9.148;2024-01-30T14:37:40;99424.66;;;11.06;71.89
28312;BME280;15572;48.810;9.148;2024-01-30T14:42:38;99438.72;;;10.93;71.44
28312;BME280;15572;48.810;9.148;2024-01-30T14:47:35;99445.16;;;10.76;70.78
28312;BME280;15572;48.810;9.148;2024-01-30T14:52:31;99442.41;;;10.60;71.59
28312;BME280;15572;48.810;9.148;2024-01-30T14:57:28;99449.50;;;10.53;71.49
28312;BME280;15572;48.810;9.148;2024-01-30T15:02:25;99455.75;;;10.45;71.58
28312;BME280;15572;48.810;9.148;2024-01-30T15:07:22;99461.34;;;10.44;70.48
28312;BME280;15572;48.810;9.148;2024-01-30T15:12:18;99469.25;;;10.29;71.45
28312;BME280;15572;48.810;9.148;2024-01-30T15:17:15;99458.56;;;10.20;72.28
28312;BME280;15572;48.810;9.148;2024-01-30T15:22:13;99475.72;;;10.10;72.93
28312;BME280;15572;48.810;9.148;2024-01-30T15:27:09;99471.09;;;9.95;73.80
28312;BME280;15572;48.810;9.148;2024-01-30T15:32:06;99477.13;;;9.81;74.74
28312;BME280;15572;48.810;9.148;2024-01-30T15:37:02;99490.06;;;9.69;75.58
28312;BME280;15572;48.810;9.148;2024-01-30T15:42:00;99495.75;;;9.58;76.21
28312;BME280;15572;48.810;9.148;2024-01-30T15:46:57;99498.78;;;9.55;76.73
28312;BME280;15572;48.810;9.148;2024-01-30T15:51:53;99494.16;;;9.47;77.58
28312;BME280;15572;48.810;9.148;2024-01-30T15:56:50;99496.09;;;9.37;78.10
28312;BME280;15572;48.810;9.148;2024-01-30T16:01:47;99502.94;;;9.23;79.47
28312;BME280;15572;48.810;9.148;2024-01-30T16:06:44;99509.06;;;9.08;80.87
28312;BME280;15572;48.810;9.148;2024-01-30T16:11:41;99519.91;;;8.98;85.75
28312;BME280;15572;48.810;9.148;2024-01-30T16:16:37;99522.09;;;8.95;85.15
28312;BME280;15572;48.810;9.148;2024-01-30T16:21:36;99530.72;;;8.80;85.41
28312;BME280;15572;48.810;9.148;2024-01-30T16:26:32;99533.81;;;8.68;85.98
28312;BME280;15572;48.810;9.148;2024-01-30T16:31:28;99529.94;;;8.53;87.21
28312;BME280;15572;48.810;9.148;2024-01-30T16:36:25;99531.44;;;8.37;88.36
28312;BME280;15572;48.810;9.148;2024-01-30T16:41:23;99526.88;;;8.28;88.59
28312;BME280;15572;48.810;9.148;2024-01-30T16:46:20;99529.81;;;8.17;89.47
28312;BME280;15572;48.810;9.148;2024-01-30T16:51:17;99522.59;;;8.08;90.23
28312;BME280;15572;48.810;9.148;2024-01-30T16:56:14;99529.28;;;8.04;90.83
28312;BME280;15572;48.810;9.148;2024-01-30T17:01:12;99521.78;;;7.98;91.69
28312;BME280;15572;48.810;9.148;2024-01-30T17:06:10;99525.06;;;7.92;92.30
28312;BME280;15572;48.810;9.148;2024-01-30T17:11:07;99530.19;;;7.85;93.24
28312;BME280;15572;48.810;9.148;2024-01-30T17:16:04;99543.72;;;7.76;94.12
28312;BME280;15572;48.810;9.148;2024-01-30T17:21:02;99541.06;;;7.66;94.82
28312;BME280;15572;48.810;9.148;2024-01-30T17:25:59;99542.06;;;7.55;96.10
28312;BME280;15572;48.810;9.148;2024-01-30T17:30:55;99557.97;;;7.49;96.97
28312;BME280;15572;48.810;9.148;2024-01-30T17:35:51;99557.41;;;7.45;97.81
28312;BME280;15572;48.810;9.148;2024-01-30T17:40:49;99567.47;;;7.43;98.45
28312;BME280;15572;48.810;9.148;2024-01-30T17:45:46;99572.44;;;7.38;98.84
28312;BME280;15572;48.810;9.148;2024-01-30T17:50:42;99582.13;;;7.31;100.00
28312;BME280;15572;48.810;9.148;2024-01-30T17:55:39;99587.75;;;7.28;100.00
28312;BME280;15572;48.810;9.148;2024-01-30T18:00:37;99587.06;;;7.36;99.40
28312;BME280;15572;48.810;9.148;2024-01-30T18:05:33;99589.88;;;7.44;98.24
28312;BME280;15572;48.810;9.148;2024-01-30T18:10:29;99584.38;;;7.36;98.93
28312;BME280;15572;48.810;9.148;2024-01-30T18:15:26;99586.78;;;7.29;100.00
28312;BME280;15572;48.810;9.148;2024-01-30T18:20:24;99583.97;;;7.21;100.00
28312;BME280;15572;48.810;9.148;2024-01-30T18:25:20;99594.28;;;7.16;100.00
28312;BME280;15572;48.810;9.148;2024-01-30T18:30:17;99596.28;;;7.14;100.00
28312;BME280;15572;48.810;9.148;2024-01-30T18:35:13;99594.88;;;7.10;100.00
28312;BME280;15572;48.810;9.148;2024-01-30T18:40:12;99604.19;;;7.06;100.00
28312;BME280;15572;48.810;9.148;2024-01-30T18:45:10;99612.28;;;7.06;100.00
28312;BME280;15572;48.810;9.148;2024-01-30T18:50:07;99618.81;;;7.03;100.00
28312;BME280;15572;48.810;9.148;2024-01-30T18:55:04;99614.28;;;7.04;100.00
28312;BME280;15572;48.810;9.148;2024-01-30T19:00:02;99612.56;;;7.03;100.00
28312;BME280;15572;48.810;9.148;2024-01-30T19:04:59;99606.34;;;7.02;100.00
28312;BME280;15572;48.810;9.148;2024-01-30T19:09:56;99612.16;;;6.98;100.00
28312;BME280;15572;48.810;9.148;2024-01-30T19:14:52;99600.81;;;6.94;100.00
28312;BME280;15572;48.810;9.148;2024-01-30T19:19:50;99595.56;;;6.93;100.00
28312;BME280;15572;48.810;9.148;2024-01-30T19:24:47;99597.25;;;6.94;100.00
28312;BME280;15572;48.810;9.148;2024-01-30T19:29:43;99596.84;;;6.98;100.00
28312;BME280;15572;48.810;9.148;2024-01-30T19:34:39;99592.44;;;6.97;100.00
28312;BME280;15572;48.810;9.148;2024-01-30T19:39:37;99593.97;;;7.00;100.00
28312;BME280;15572;48.810;9.148;2024-01-30T19:44:34;99600.22;;;7.00;100.00
28312;BME280;15572;48.810;9.148;2024-01-30T19:49:32;99610.88;;;7.02;100.00
28312;BME280;15572;48.810;9.148;2024-01-30T19:54:29;99608.88;;;6.94;100.00
28312;BME280;15572;48.810;9.148;2024-01-30T19:59:26;99602.06;;;6.90;100.00
28312;BME280;15572;48.810;9.148;2024-01-30T20:04:23;99613.53;;;6.83;100.00
28312;BME280;15572;48.810;9.148;2024-01-30T20:09:19;99611.41;;;6.76;100.00
28312;BME280;15572;48.810;9.148;2024-01-30T20:14:16;99616.06;;;6.74;100.00
28312;BME280;15572;48.810;9.148;2024-01-30T20:19:14;99619.88;;;6.72;100.00
28312;BME280;15572;48.810;9.148;2024-01-30T20:24:11;99624.97;;;6.65;100.00
28312;BME280;15572;48.810;9.148;2024-01-30T20:29:08;99632.03;;;6.57;100.00
28312;BME280;15572;48.810;9.148;2024-01-30T20:34:04;99634.94;;;6.44;100.00
28312;BME280;15572;48.810;9.148;2024-01-30T20:39:02;99641.69;;;6.29;100.00
28312;BME280;15572;48.810;9.148;2024-01-30T20:44:00;99640.63;;;6.20;100.00
28312;BME280;15572;48.810;9.148;2024-01-30T20:48:57;99644.53;;;6.07;100.00
28312;BME280;15572;48.810;9.148;2024-01-30T20:53:55;99658.91;;;5.96;100.00
28312;BME280;15572;48.810;9.148;2024-01-30T20:58:53;99663.44;;;5.96;100.00
28312;BME280;15572;48.810;9.148;2024-01-30T21:03:49;99674.38;;;6.04;100.00
28312;BME280;15572;48.810;9.148;2024-01-30T21:08:46;99671.09;;;6.00;100.00
28312;BME280;15572;48.810;9.148;2024-01-30T21:13:42;99681.41;;;5.95;100.00
28312;BME280;15572;48.810;9.148;2024-01-30T21:18:41;99673.00;;;5.88;100.00
28312;BME280;15572;48.810;9.148;2024-01-30T21:23:38;99668.38;;;5.90;100.00
28312;BME280;15572;48.810;9.148;2024-01-30T21:28:35;99677.75;;;5.96;100.00
28312;BME280;15572;48.810;9.148;2024-01-30T21:33:31;99682.84;;;5.99;100.00
28312;BME280;15572;48.810;9.148;2024-01-30T21:38:29;99687.25;;;6.00;100.00
28312;BME280;15572;48.810;9.148;2024-01-30T21:43:26;99680.16;;;5.99;100.00
28312;BME280;15572;48.810;9.148;2024-01-30T21:48:22;99675.09;;;6.06;100.00
28312;BME280;15572;48.810;9.148;2024-01-30T21:53:18;99690.59;;;6.13;100.00
28312;BME280;15572;48.810;9.148;2024-01-30T21:58:16;99681.13;;;6.19;100.00
28312;BME280;15572;48.810;9.148;2024-01-30T22:03:12;99683.41;;;6.23;100.00
28312;BME280;15572;48.810;9.148;2024-01-30T22:08:10;99681.31;;;6.27;100.00
28312;BME280;15572;48.810;9.148;2024-01-30T22:13:06;99676.78;;;6.27;100.00
28312;BME280;15572;48.810;9.148;2024-01-30T22:18:04;99678.75;;;6.25;100.00
28312;BME280;15572;48.810;9.148;2024-01-30T22:23:01;99690.22;;;6.27;100.00
28312;BME280;15572;48.810;9.148;2024-01-30T22:27:57;99690.09;;;6.29;100.00
28312;BME280;15572;48.810;9.148;2024-01-30T22:32:54;99693.66;;;6.29;100.00
28312;BME280;15572;48.810;9.148;2024-01-30T22:37:51;99688.97;;;6.31;100.00
28312;BME280;15572;48.810;9.148;2024-01-30T22:42:48;99700.25;;;6.25;100.00
28312;BME280;15572;48.810;9.148;2024-01-30T22:47:45;99717.13;;;6.27;100.00
28312;BME280;15572;48.810;9.148;2024-01-30T22:52:41;99713.78;;;6.35;100.00
28312;BME280;15572;48.810;9.148;2024-01-30T22:57:40;99717.19;;;6.37;100.00
28312;BME280;15572;48.810;9.148;2024-01-30T23:02:36;99721.44;;;6.40;100.00
28312;BME280;15572;48.810;9.148;2024-01-30T23:07:33;99713.72;;;6.46;100.00
28312;BME280;15572;48.810;9.148;2024-01-30T23:12:34;99706.34;;;6.48;100.00
28312;BME280;15572;48.810;9.148;2024-01-30T23:17:32;99712.44;;;6.50;100.00
28312;BME280;15572;48.810;9.148;2024-01-30T23:22:29;99717.53;;;6.53;100.00
28312;BME280;15572;48.810;9.148;2024-01-30T23:27:26;99718.28;;;6.55;100.00
28312;BME280;15572;48.810;9.148;2024-01-30T23:32:22;99715.03;;;6.61;100.00
28312;BME280;15572;48.810;9.148;2024-01-30T23:37:20;99719.44;;;6.62;100.00
28312;BME280;15572;48.810;9.148;2024-01-30T23:42:16;99719.91;;;6.67;100.00
28312;BME280;15572;48.810;9.148;2024-01-30T23:47:13;99721.00;;;6.65;100.00
28312;BME280;15572;48.810;9.148;2024-01-30T23:52:10;99722.97;;;6.63;100.00
28312;BME280;15572;48.810;9.148;2024-01-30T23:57:07;99728.09;;;6.66;100.00
